Time;durP1;ratioP1;P1;durP2;ratioP2;P2;SDS_P1;SDS_P2;PMS_P1;PMS_P2;Temp;Humidity;BMP_temperature;BMP_pressure;BME280_temperature;BME280_humidity;BME280_pressure;Samples;Min_cycle;Max_cycle;Signal;HPM_P1;HPM_P2
2023/09/10 00:01:39;;;;;;;;;;;;;;;19.60;38.46;99880.16;5092612;28;19926;-77
2023/09/10 00:04:04;;;;;;;;;;;;;;;19.59;38.70;99875.00;5092709;28;20297;-77
2023/09/10 00:06:32;;;;;;;;;;;;;;;19.55;38.88;99876.53;5074180;28;19912;-78
2023/09/10 00:08:57;;;;;;;;;;;;;;;19.52;39.23;99875.13;5092497;28;19943;-77
2023/09/10 00:11:23;;;;;;;;;;;;;;;19.53;38.83;99866.03;5092539;28;20416;-78
2023/09/10 00:13:48;;;;;;;;;;;;;;;19.51;39.19;99872.63;5092573;28;20423;-77
2023/09/10 00:16:13;;;;;;;;;;;;;;;19.51;39.11;99862.75;5074400;28;19955;-77
2023/09/10 00:18:38;;;;;;;;;;;;;;;19.52;38.86;99860.88;5092969;28;19981;-77
2023/09/10 00:21:04;;;;;;;;;;;;;;;19.49;38.73;99862.16;5092462;28;19960;-77
2023/09/10 00:23:29;;;;;;;;;;;;;;;19.46;39.42;99859.94;5074540;28;20281;-77
2023/09/10 00:25:54;;;;;;;;;;;;;;;19.41;39.81;99854.44;5074730;28;19959;-76
2023/09/10 00:28:20;;;;;;;;;;;;;;;19.33;39.76;99860.13;5092101;28;20274;-76
2023/09/10 00:30:51;;;;;;;;;;;;;;;19.35;39.53;99863.38;5092541;28;20397;-76
2023/09/10 00:33:17;;;;;;;;;;;;;;;19.32;39.88;99858.44;5092351;28;19965;-76
2023/09/10 00:35:43;;;;;;;;;;;;;;;19.32;39.24;99861.13;5092309;28;19959;-76
2023/09/10 00:38:08;;;;;;;;;;;;;;;19.35;39.15;99855.34;5092186;28;19951;-77
2023/09/10 00:40:33;;;;;;;;;;;;;;;19.38;39.60;99854.91;5092114;28;19918;-77
2023/09/10 00:42:58;;;;;;;;;;;;;;;19.33;39.46;99852.91;5092110;28;19919;-77
2023/09/10 00:45:24;;;;;;;;;;;;;;;19.31;39.36;99852.28;5074131;28;19937;-76
2023/09/10 00:47:49;;;;;;;;;;;;;;;19.23;39.97;99844.56;5074229;28;19991;-77
2023/09/10 00:50:15;;;;;;;;;;;;;;;19.22;39.89;99842.94;5092093;28;19912;-76
2023/09/10 00:52:46;;;;;;;;;;;;;;;19.20;39.42;99845.03;5073919;28;19912;-77
2023/09/10 00:55:12;;;;;;;;;;;;;;;19.15;40.03;99847.56;5073692;28;19912;-77
2023/09/10 00:57:37;;;;;;;;;;;;;;;19.13;39.85;99846.97;5091737;28;19916;-77
2023/09/10 01:00:07;;;;;;;;;;;;;;;19.09;39.56;99836.94;5073754;28;19912;-77
2023/09/10 01:02:32;;;;;;;;;;;;;;;19.09;40.41;99843.13;5091771;28;20439;-76
2023/09/10 01:04:58;;;;;;;;;;;;;;;19.07;40.17;99845.19;5091862;28;19944;-76
2023/09/10 01:07:23;;;;;;;;;;;;;;;19.04;39.57;99832.28;5091684;28;19920;-77
2023/09/10 01:09:48;;;;;;;;;;;;;;;19.04;39.89;99838.44;5091808;28;19912;-76
2023/09/10 01:12:19;;;;;;;;;;;;;;;19.03;40.20;99836.81;5073714;28;19913;-77
2023/09/10 01:14:48;;;;;;;;;;;;;;;19.05;39.74;99840.06;5073657;28;19935;-77
2023/09/10 01:17:26;;;;;;;;;;;;;;;18.99;39.72;99835.63;5091706;28;19912;-77
2023/09/10 01:19:51;;;;;;;;;;;;;;;18.91;39.98;99833.25;5091583;28;19912;-77
2023/09/10 01:22:16;;;;;;;;;;;;;;;18.87;40.26;99842.78;5091729;28;19919;-77
2023/09/10 01:24:41;;;;;;;;;;;;;;;18.80;40.59;99839.38;5073603;28;20411;-77
2023/09/10 01:27:07;;;;;;;;;;;;;;;18.73;40.57;99836.78;5073521;28;20301;-77
2023/09/10 01:29:33;;;;;;;;;;;;;;;18.68;40.92;99838.47;5091573;28;20381;-76
2023/09/10 01:32:00;;;;;;;;;;;;;;;18.70;40.83;99825.69;5091703;28;19912;-77
2023/09/10 01:34:27;;;;;;;;;;;;;;;18.70;40.91;99841.75;5091533;28;20002;-77
2023/09/10 01:36:56;;;;;;;;;;;;;;;18.64;41.12;99839.97;5091428;28;20420;-77
2023/09/10 01:39:27;;;;;;;;;;;;;;;18.58;40.69;99832.78;5092875;28;19916;-77
2023/09/10 01:41:53;;;;;;;;;;;;;;;18.65;41.10;99838.94;5095467;28;19916;-77
2023/09/10 01:44:19;;;;;;;;;;;;;;;18.64;41.15;99831.94;5095569;28;19912;-76
2023/09/10 01:46:45;;;;;;;;;;;;;;;18.61;41.37;99837.72;5095325;28;20313;-76
2023/09/10 01:49:10;;;;;;;;;;;;;;;18.61;40.85;99830.53;5095173;28;19919;-76
2023/09/10 01:51:36;;;;;;;;;;;;;;;18.56;41.79;99837.53;5095053;28;19908;-77
2023/09/10 01:54:01;;;;;;;;;;;;;;;18.55;41.56;99835.91;5094913;28;19919;-76
2023/09/10 01:56:26;;;;;;;;;;;;;;;18.55;41.40;99833.22;5095076;28;19972;-76
2023/09/10 01:58:51;;;;;;;;;;;;;;;18.55;41.25;99838.56;5076928;28;20373;-76
2023/09/10 02:01:17;;;;;;;;;;;;;;;18.54;41.77;99834.25;5076953;28;19920;-76
2023/09/10 02:03:42;;;;;;;;;;;;;;;18.53;41.46;99833.44;5095110;28;19912;-76
2023/09/10 02:06:07;;;;;;;;;;;;;;;18.51;42.13;99837.38;5076661;28;19916;-76
2023/09/10 02:08:33;;;;;;;;;;;;;;;18.55;41.89;99838.56;5095218;28;19912;-76
2023/09/10 02:11:02;;;;;;;;;;;;;;;18.56;41.21;99835.66;5077898;28;19970;-77
2023/09/10 02:13:27;;;;;;;;;;;;;;;18.55;41.58;99841.25;5086804;28;19971;-77
2023/09/10 02:15:53;;;;;;;;;;;;;;;18.56;41.43;99841.03;5105811;28;19919;-78
2023/09/10 02:18:18;;;;;;;;;;;;;;;18.56;42.39;99848.22;5098876;28;19999;-77
2023/09/10 02:20:43;;;;;;;;;;;;;;;18.59;41.76;99850.47;5095258;28;19999;-76
2023/09/10 02:23:27;;;;;;;;;;;;;;;18.65;41.17;99844.28;5095423;28;19919;-76
2023/09/10 02:25:52;;;;;;;;;;;;;;;18.58;41.63;99843.47;5094503;28;20373;-77
2023/09/10 02:28:23;;;;;;;;;;;;;;;18.53;41.86;99846.81;5076450;28;19920;-76
2023/09/10 02:30:48;;;;;;;;;;;;;;;18.52;42.17;99849.72;5094586;28;20363;-76
2023/09/10 02:33:13;;;;;;;;;;;;;;;18.50;42.06;99847.25;5094545;28;20002;-76
2023/09/10 02:35:39;;;;;;;;;;;;;;;18.49;42.49;99844.81;5095840;28;19912;-77
2023/09/10 02:38:04;;;;;;;;;;;;;;;18.47;42.13;99852.22;5107039;28;19977;-77
2023/09/10 02:40:29;;;;;;;;;;;;;;;18.53;42.42;99854.00;5097559;28;19919;-78
2023/09/10 02:42:54;;;;;;;;;;;;;;;18.55;42.03;99850.09;5094339;28;19969;-76
2023/09/10 02:45:20;;;;;;;;;;;;;;;18.63;41.40;99851.72;5094301;28;19912;-76
2023/09/10 02:47:45;;;;;;;;;;;;;;;18.70;41.70;99842.56;5094346;28;20369;-76
2023/09/10 02:50:10;;;;;;;;;;;;;;;18.68;42.40;99851.84;5094044;28;19927;-77
2023/09/10 02:52:36;;;;;;;;;;;;;;;18.65;42.01;99839.75;5075818;28;19912;-77
2023/09/10 02:55:01;;;;;;;;;;;;;;;18.68;42.28;99841.97;5075819;28;20388;-78
2023/09/10 02:57:26;;;;;;;;;;;;;;;18.68;42.20;99839.28;5094023;28;19934;-76
2023/09/10 02:59:52;;;;;;;;;;;;;;;18.66;42.76;99837.88;5094333;28;20006;-77
2023/09/10 03:02:17;;;;;;;;;;;;;;;18.60;42.93;99850.25;5093890;28;19927;-76
2023/09/10 03:04:42;;;;;;;;;;;;;;;18.56;42.73;99845.56;5094325;28;19947;-77
2023/09/10 03:07:07;;;;;;;;;;;;;;;18.53;43.07;99852.16;5093818;28;19916;-76
2023/09/10 03:09:33;;;;;;;;;;;;;;;18.55;43.08;99862.63;5093938;28;19976;-77
2023/09/10 03:12:16;;;;;;;;;;;;;;;18.56;43.09;99848.22;5093756;28;20301;-76
2023/09/10 03:14:42;;;;;;;;;;;;;;;18.61;42.86;99859.94;5075464;28;19912;-77
2023/09/10 03:17:07;;;;;;;;;;;;;;;18.67;41.47;99859.06;5093654;28;20408;-76
2023/09/10 03:19:34;;;;;;;;;;;;;;;18.69;42.45;99846.28;5075529;28;20308;-77
2023/09/10 03:22:00;;;;;;;;;;;;;;;18.72;43.05;99851.19;5093557;28;20057;-77
2023/09/10 03:24:25;;;;;;;;;;;;;;;18.74;42.10;99856.31;5093512;28;19958;-76
2023/09/10 03:26:50;;;;;;;;;;;;;;;18.82;41.79;99845.31;5075130;28;19923;-78
2023/09/10 03:29:15;;;;;;;;;;;;;;;18.86;42.57;99854.53;5093455;28;19918;-76
2023/09/10 03:31:41;;;;;;;;;;;;;;;18.92;42.63;99852.81;5075241;28;19912;-77
2023/09/10 03:34:06;;;;;;;;;;;;;;;18.97;42.23;99858.28;5075193;28;19920;-76
2023/09/10 03:36:31;;;;;;;;;;;;;;;18.98;42.71;99854.59;5093207;28;20389;-76
2023/09/10 03:38:56;;;;;;;;;;;;;;;18.97;42.24;99856.44;5075063;28;19935;-76
2023/09/10 03:41:21;;;;;;;;;;;;;;;18.91;42.82;99865.38;5074908;28;19934;-77
2023/09/10 03:43:47;;;;;;;;;;;;;;;18.86;43.23;99857.19;5093193;28;19999;-76
2023/09/10 03:46:12;;;;;;;;;;;;;;;18.90;42.08;99853.03;5092972;28;20388;-75
2023/09/10 03:48:37;;;;;;;;;;;;;;;18.94;41.79;99851.53;5093040;28;19998;-77
2023/09/10 03:51:03;;;;;;;;;;;;;;;18.99;41.66;99851.69;5092883;28;20304;-79
2023/09/10 03:53:28;;;;;;;;;;;;;;;19.02;41.66;99855.75;5093016;28;19905;-75
2023/09/10 03:55:54;;;;;;;;;;;;;;;19.00;42.04;99861.34;5092703;28;20010;-78
2023/09/10 03:58:19;;;;;;;;;;;;;;;19.02;41.73;99856.59;5092781;28;19919;-74
2023/09/10 04:00:44;;;;;;;;;;;;;;;18.99;41.61;99857.03;5092730;28;19912;-77
2023/09/10 04:03:10;;;;;;;;;;;;;;;18.98;41.39;99858.06;5091983;28;19926;-77
2023/09/10 04:05:35;;;;;;;;;;;;;;;19.04;41.51;99867.88;5092704;28;19912;-77
2023/09/10 04:08:00;;;;;;;;;;;;;;;19.09;41.36;99863.72;5092414;28;19970;-77
2023/09/10 04:10:27;;;;;;;;;;;;;;;19.12;41.66;99865.94;5092491;28;19966;-77
2023/09/10 04:12:52;;;;;;;;;;;;;;;19.09;41.52;99856.50;5074327;28;19919;-77
2023/09/10 04:15:17;;;;;;;;;;;;;;;19.08;41.57;99859.41;5092489;28;19916;-77
2023/09/10 04:17:42;;;;;;;;;;;;;;;19.05;41.27;99869.50;5092514;28;19912;-77
2023/09/10 04:20:09;;;;;;;;;;;;;;;19.03;41.18;99865.44;5074276;28;19918;-77
2023/09/10 04:22:35;;;;;;;;;;;;;;;19.08;41.21;99868.25;5092245;28;19912;-77
2023/09/10 04:25:00;;;;;;;;;;;;;;;19.11;40.94;99869.66;5092299;28;19919;-77
2023/09/10 04:27:27;;;;;;;;;;;;;;;19.16;41.31;99875.97;5092354;28;20300;-77
2023/09/10 04:29:54;;;;;;;;;;;;;;;19.24;40.84;99872.97;5092262;28;19951;-77
2023/09/10 04:32:19;;;;;;;;;;;;;;;19.28;40.64;99876.00;5092411;28;20020;-78
2023/09/10 04:34:45;;;;;;;;;;;;;;;19.30;40.87;99871.25;5092221;28;20019;-77
2023/09/10 04:37:10;;;;;;;;;;;;;;;19.27;40.75;99875.19;5092330;28;19912;-77
2023/09/10 04:39:35;;;;;;;;;;;;;;;19.35;40.58;99871.41;5092132;28;20005;-77
2023/09/10 04:42:02;;;;;;;;;;;;;;;19.38;40.27;99860.25;5092108;28;19912;-77
2023/09/10 04:44:27;;;;;;;;;;;;;;;19.38;40.77;99868.28;5091979;28;19908;-77
2023/09/10 04:46:54;;;;;;;;;;;;;;;19.34;40.33;99872.47;5092040;28;19924;-76
2023/09/10 04:49:19;;;;;;;;;;;;;;;19.30;40.76;99872.06;5092038;28;19919;-76
2023/09/10 04:51:45;;;;;;;;;;;;;;;19.32;41.15;99870.00;5091958;28;19912;-77
2023/09/10 04:54:10;;;;;;;;;;;;;;;19.36;41.00;99867.69;5073928;28;19912;-76
2023/09/10 04:56:35;;;;;;;;;;;;;;;19.35;41.38;99866.88;5091926;28;19973;-76
2023/09/10 04:59:00;;;;;;;;;;;;;;;19.39;40.78;99867.25;5073812;28;19919;-76
2023/09/10 05:01:26;;;;;;;;;;;;;;;19.47;40.79;99872.28;5091830;28;19978;-76
2023/09/10 05:03:51;;;;;;;;;;;;;;;19.55;40.40;99865.81;5073778;28;20011;-76
2023/09/10 05:06:17;;;;;;;;;;;;;;;19.61;40.59;99868.38;5091673;28;19920;-76
2023/09/10 05:08:42;;;;;;;;;;;;;;;19.66;40.56;99870.38;5092017;28;19912;-76
2023/09/10 05:11:07;;;;;;;;;;;;;;;19.72;40.16;99874.00;5107132;28;19912;-77
2023/09/10 05:13:33;;;;;;;;;;;;;;;19.81;40.00;99876.13;5103950;28;19916;-76
2023/09/10 05:15:58;;;;;;;;;;;;;;;19.87;39.79;99880.56;5096378;28;19904;-76
2023/09/10 05:18:26;;;;;;;;;;;;;;;19.94;39.93;99875.09;5096616;28;19965;-76
2023/09/10 05:20:52;;;;;;;;;;;;;;;20.03;40.20;99880.94;5096430;28;20412;-76
2023/09/10 05:23:18;;;;;;;;;;;;;;;20.08;39.85;99881.91;5096021;28;19912;-76
2023/09/10 05:25:43;;;;;;;;;;;;;;;20.15;39.87;99881.78;5077689;28;20414;-76
2023/09/10 05:28:09;;;;;;;;;;;;;;;20.19;39.57;99889.13;5095792;28;20010;-76
2023/09/10 05:30:37;;;;;;;;;;;;;;;20.24;39.67;99891.13;5095837;28;19935;-76
2023/09/10 05:33:03;;;;;;;;;;;;;;;20.29;39.48;99881.31;5106848;28;19912;-76
2023/09/10 05:35:28;;;;;;;;;;;;;;;20.37;39.48;99879.34;5105818;28;19919;-77
2023/09/10 05:37:53;;;;;;;;;;;;;;;20.47;39.46;99879.59;5096074;28;19962;-77
2023/09/10 05:40:18;;;;;;;;;;;;;;;20.57;39.50;99886.00;5096038;28;19912;-77
2023/09/10 05:42:44;;;;;;;;;;;;;;;20.69;39.31;99893.22;5077533;28;19912;-77
2023/09/10 05:45:10;;;;;;;;;;;;;;;20.76;39.35;99886.69;5095678;28;19912;-77
2023/09/10 05:47:35;;;;;;;;;;;;;;;20.84;39.01;99890.91;5077134;28;19959;-76
2023/09/10 05:50:01;;;;;;;;;;;;;;;20.89;38.94;99885.63;5095409;28;20312;-77
2023/09/10 05:52:26;;;;;;;;;;;;;;;20.97;38.98;99889.81;5095492;28;19916;-76
2023/09/10 05:54:51;;;;;;;;;;;;;;;21.02;38.95;99895.28;5077074;28;19912;-77
2023/09/10 05:57:17;;;;;;;;;;;;;;;21.06;39.33;99905.31;5095350;28;20460;-76
2023/09/10 05:59:42;;;;;;;;;;;;;;;21.09;38.97;99893.28;5076894;28;19916;-77
2023/09/10 06:02:07;;;;;;;;;;;;;;;21.13;38.75;99907.88;5094931;28;19927;-77
2023/09/10 06:04:33;;;;;;;;;;;;;;;21.19;39.09;99904.22;5095034;28;19923;-77
2023/09/10 06:06:59;;;;;;;;;;;;;;;21.27;38.89;99905.75;5076582;28;20065;-76
2023/09/10 06:09:24;;;;;;;;;;;;;;;21.34;38.48;99909.94;5094764;28;19916;-77
2023/09/10 06:11:49;;;;;;;;;;;;;;;21.39;38.55;99909.19;5095025;28;19959;-77
2023/09/10 06:14:14;;;;;;;;;;;;;;;21.44;38.41;99912.00;5076652;28;19916;-77
2023/09/10 06:16:40;;;;;;;;;;;;;;;21.46;38.20;99915.25;5094907;28;19912;-76
2023/09/10 06:19:05;;;;;;;;;;;;;;;21.50;38.11;99922.59;5094728;28;20436;-77
2023/09/10 06:21:30;;;;;;;;;;;;;;;21.53;38.15;99924.78;5094509;28;19994;-77
2023/09/10 06:23:55;;;;;;;;;;;;;;;21.61;38.19;99925.50;5094477;28;19916;-75
2023/09/10 06:26:21;;;;;;;;;;;;;;;21.66;38.00;99926.41;5094065;28;20397;-78
2023/09/10 06:28:46;;;;;;;;;;;;;;;21.69;37.78;99933.16;5094599;28;19912;-78
2023/09/10 06:31:11;;;;;;;;;;;;;;;21.71;37.77;99933.75;5094634;28;19919;-78
2023/09/10 06:33:37;;;;;;;;;;;;;;;21.77;37.73;99938.16;5076385;28;20369;-76
2023/09/10 06:36:02;;;;;;;;;;;;;;;21.87;37.56;99943.72;5094726;28;19951;-76
2023/09/10 06:38:28;;;;;;;;;;;;;;;21.93;37.45;99941.94;5094621;28;19912;-76
2023/09/10 06:40:54;;;;;;;;;;;;;;;21.96;37.38;99944.13;5094456;28;19966;-75
2023/09/10 06:43:19;;;;;;;;;;;;;;;21.97;37.10;99941.19;5094422;28;19912;-75
2023/09/10 06:45:44;;;;;;;;;;;;;;;21.98;37.43;99940.13;5094334;28;20316;-76
2023/09/10 06:48:09;;;;;;;;;;;;;;;22.05;37.13;99950.78;5076083;28;20057;-77
2023/09/10 06:50:35;;;;;;;;;;;;;;;22.09;37.28;99950.03;5094063;28;19969;-77
2023/09/10 06:53:00;;;;;;;;;;;;;;;22.14;37.30;99946.63;5093993;28;19912;-77
2023/09/10 06:55:26;;;;;;;;;;;;;;;22.16;37.20;99952.56;5093912;28;20316;-77
2023/09/10 06:57:51;;;;;;;;;;;;;;;22.15;36.81;99946.38;5094110;28;19920;-78
2023/09/10 07:00:17;;;;;;;;;;;;;;;22.19;36.98;99947.50;5094096;28;20372;-78
2023/09/10 07:02:42;;;;;;;;;;;;;;;22.25;37.01;99950.28;5093777;28;19920;-75
2023/09/10 07:05:07;;;;;;;;;;;;;;;22.33;36.95;99952.59;5093827;28;20385;-77
2023/09/10 07:07:33;;;;;;;;;;;;;;;22.33;36.68;99961.50;5094098;28;19943;-77
2023/09/10 07:09:58;;;;;;;;;;;;;;;22.42;36.78;99951.13;5075720;28;19912;-75
2023/09/10 07:12:23;;;;;;;;;;;;;;;22.53;36.90;99944.84;5093550;28;19961;-77
2023/09/10 07:14:49;;;;;;;;;;;;;;;22.60;36.76;99942.78;5093957;28;19912;-76
2023/09/10 07:17:14;;;;;;;;;;;;;;;22.68;36.44;99947.75;5093776;28;19991;-76
2023/09/10 07:19:40;;;;;;;;;;;;;;;22.73;35.88;99944.31;5093690;28;19973;-77
2023/09/10 07:22:05;;;;;;;;;;;;;;;22.77;36.28;99940.88;5093804;28;19912;-76
2023/09/10 07:24:31;;;;;;;;;;;;;;;22.87;36.47;99944.81;5075385;28;19919;-77
2023/09/10 07:26:58;;;;;;;;;;;;;;;22.96;36.30;99946.00;5093356;28;19916;-76
2023/09/10 07:29:24;;;;;;;;;;;;;;;23.04;36.32;99937.53;5093530;28;19919;-77
2023/09/10 07:31:49;;;;;;;;;;;;;;;23.07;36.13;99945.91;5093451;28;20285;-76
2023/09/10 07:34:14;;;;;;;;;;;;;;;23.12;35.99;99940.59;5075256;28;20312;-77
2023/09/10 07:36:40;;;;;;;;;;;;;;;23.21;35.87;99937.47;5092586;28;19960;-77
2023/09/10 07:39:06;;;;;;;;;;;;;;;23.33;35.91;99948.91;5093022;28;20424;-76
2023/09/10 07:41:32;;;;;;;;;;;;;;;23.39;35.79;99942.53;5093370;28;19912;-77
2023/09/10 07:43:57;;;;;;;;;;;;;;;23.38;34.72;99939.03;5093093;28;19912;-77
2023/09/10 07:46:22;;;;;;;;;;;;;;;23.43;35.34;99938.25;5092918;28;20007;-76
2023/09/10 07:48:48;;;;;;;;;;;;;;;23.49;35.55;99933.75;5093011;28;19912;-77
2023/09/10 07:51:13;;;;;;;;;;;;;;;23.59;35.43;99936.56;5074839;28;19912;-76
2023/09/10 07:53:38;;;;;;;;;;;;;;;23.70;35.65;99943.69;5092819;28;19958;-76
2023/09/10 07:56:03;;;;;;;;;;;;;;;23.76;35.16;99929.19;5092861;28;19912;-77
2023/09/10 07:58:29;;;;;;;;;;;;;;;23.83;34.89;99942.50;5074835;28;19919;-75
2023/09/10 08:01:12;;;;;;;;;;;;;;;23.94;35.21;99936.94;5092753;28;19916;-77
2023/09/10 08:03:38;;;;;;;;;;;;;;;24.05;34.78;99948.63;5092837;28;19912;-76
2023/09/10 08:06:04;;;;;;;;;;;;;;;24.17;34.73;99943.06;5092646;28;19918;-78
2023/09/10 08:08:29;;;;;;;;;;;;;;;24.27;34.49;99945.88;5092916;28;19912;-75
2023/09/10 08:10:54;;;;;;;;;;;;;;;24.33;34.42;99942.97;5074519;28;19923;-77
2023/09/10 08:13:20;;;;;;;;;;;;;;;24.46;34.42;99939.00;5074500;28;19912;-76
2023/09/10 08:15:45;;;;;;;;;;;;;;;24.57;34.50;99945.31;5093034;28;19919;-76
2023/09/10 08:18:11;;;;;;;;;;;;;;;24.67;34.08;99938.09;5074469;28;19912;-76
2023/09/10 08:20:38;;;;;;;;;;;;;;;24.74;33.73;99939.75;5093089;28;19912;-77
2023/09/10 08:23:03;;;;;;;;;;;;;;;24.85;34.03;99947.66;5092552;28;20358;-76
2023/09/10 08:25:29;;;;;;;;;;;;;;;25.02;34.39;99928.59;5092742;28;19911;-75
2023/09/10 08:27:54;;;;;;;;;;;;;;;25.08;34.54;99930.22;5094435;28;19927;-75
2023/09/10 08:30:19;;;;;;;;;;;;;;;25.17;34.54;99936.75;5089905;28;19918;-77
2023/09/10 08:32:47;;;;;;;;;;;;;;;25.25;34.50;99930.03;5096408;28;19912;-77
2023/09/10 08:35:12;;;;;;;;;;;;;;;25.29;33.99;99928.44;5092336;28;19922;-77
2023/09/10 08:37:38;;;;;;;;;;;;;;;25.40;34.11;99923.88;5092464;28;19995;-76
2023/09/10 08:40:03;;;;;;;;;;;;;;;25.54;33.69;99925.81;5091943;28;19912;-75
2023/09/10 08:42:30;;;;;;;;;;;;;;;25.64;33.69;99914.19;5073834;28;20274;-77
2023/09/10 08:44:59;;;;;;;;;;;;;;;25.81;33.65;99922.09;5073777;28;19924;-77
2023/09/10 08:47:25;;;;;;;;;;;;;;;25.94;33.45;99927.78;5091885;28;20034;-77
2023/09/10 08:49:53;;;;;;;;;;;;;;;26.06;32.98;99922.13;5091808;28;19969;-77
2023/09/10 08:52:19;;;;;;;;;;;;;;;26.17;32.92;99926.47;5092136;28;19919;-77
2023/09/10 08:54:44;;;;;;;;;;;;;;;26.37;33.00;99928.38;5073803;28;19912;-77
2023/09/10 08:57:11;;;;;;;;;;;;;;;26.53;32.67;99912.91;5091905;28;20407;-77
2023/09/10 08:59:37;;;;;;;;;;;;;;;26.65;31.69;99915.31;5091920;28;19919;-77
2023/09/10 09:02:03;;;;;;;;;;;;;;;26.84;31.88;99916.38;5073718;28;20374;-77
2023/09/10 09:04:30;;;;;;;;;;;;;;;27.02;32.28;99909.56;5092021;28;19912;-77
2023/09/10 09:06:55;;;;;;;;;;;;;;;26.97;31.75;99915.78;5091711;28;19924;-76
2023/09/10 09:09:22;;;;;;;;;;;;;;;27.14;32.25;99913.56;5091831;28;19965;-77
2023/09/10 09:11:48;;;;;;;;;;;;;;;27.34;32.10;99906.44;5073569;28;20012;-77
2023/09/10 09:14:14;;;;;;;;;;;;;;;27.60;31.71;99898.97;5091828;28;19991;-77
2023/09/10 09:16:40;;;;;;;;;;;;;;;27.75;31.18;99912.47;5091744;28;20385;-77
2023/09/10 09:19:10;;;;;;;;;;;;;;;27.81;31.53;99903.19;5091819;28;19920;-76
2023/09/10 09:21:38;;;;;;;;;;;;;;;27.94;31.06;99905.25;5091792;28;19912;-75
2023/09/10 09:24:03;;;;;;;;;;;;;;;28.13;30.55;99903.47;5073544;28;19922;-75
2023/09/10 09:26:29;;;;;;;;;;;;;;;28.22;30.64;99898.22;5091843;28;19916;-76
2023/09/10 09:28:57;;;;;;;;;;;;;;;28.42;31.20;99884.50;5091814;28;19916;-75
2023/09/10 09:31:41;;;;;;;;;;;;;;;28.57;30.33;99888.97;5091719;28;19912;-76
2023/09/10 09:34:07;;;;;;;;;;;;;;;28.62;30.26;99896.25;5091454;28;19904;-76
2023/09/10 09:36:36;;;;;;;;;;;;;;;28.77;29.20;99882.50;5091864;28;19919;-76
2023/09/10 09:39:07;;;;;;;;;;;;;;;28.81;29.96;99888.97;5091669;28;19912;-76
2023/09/10 09:41:33;;;;;;;;;;;;;;;28.97;29.72;99876.03;5091721;28;19912;-77
2023/09/10 09:43:58;;;;;;;;;;;;;;;29.09;29.67;99874.53;5091552;28;19912;-75
2023/09/10 09:46:30;;;;;;;;;;;;;;;29.09;28.30;99871.00;5091564;28;20449;-77
2023/09/10 09:48:55;;;;;;;;;;;;;;;29.19;28.83;99864.63;5091497;28;19916;-77
2023/09/10 09:51:21;;;;;;;;;;;;;;;29.15;29.14;99856.25;5091540;28;20388;-76
2023/09/10 09:53:46;;;;;;;;;;;;;;;29.03;29.31;99869.47;5090595;28;20014;-77
2023/09/10 09:56:16;;;;;;;;;;;;;;;29.07;29.49;99862.34;5073389;28;19912;-77
2023/09/10 09:58:43;;;;;;;;;;;;;;;29.32;29.84;99863.91;5073286;28;19912;-76
2023/09/10 10:01:09;;;;;;;;;;;;;;;29.24;29.50;99854.47;5093991;28;20428;-76
2023/09/10 10:03:34;;;;;;;;;;;;;;;29.05;29.69;99848.22;5076823;28;19916;-78
2023/09/10 10:06:01;;;;;;;;;;;;;;;28.86;30.16;99850.88;5094962;28;20014;-77
2023/09/10 10:08:28;;;;;;;;;;;;;;;28.79;30.09;99853.94;5095027;28;19973;-76
2023/09/10 10:10:54;;;;;;;;;;;;;;;28.58;29.63;99849.03;5095135;28;19934;-77
2023/09/10 10:13:20;;;;;;;;;;;;;;;28.42;30.17;99840.25;5095027;28;20448;-77
2023/09/10 10:15:47;;;;;;;;;;;;;;;28.20;29.48;99846.13;5076579;28;19912;-74
2023/09/10 10:18:14;;;;;;;;;;;;;;;28.21;29.87;99855.88;5095000;28;19948;-78
2023/09/10 10:20:40;;;;;;;;;;;;;;;28.14;28.99;99842.66;5094826;28;20393;-76
2023/09/10 10:23:06;;;;;;;;;;;;;;;28.02;29.85;99841.41;5076652;28;20324;-76
2023/09/10 10:25:32;;;;;;;;;;;;;;;27.91;29.72;99839.88;5094768;28;20380;-78
2023/09/10 10:27:57;;;;;;;;;;;;;;;27.86;30.34;99835.31;5094608;28;19976;-78
2023/09/10 10:30:24;;;;;;;;;;;;;;;27.97;30.19;99841.47;5094819;28;20399;-76
2023/09/10 10:32:50;;;;;;;;;;;;;;;27.85;30.05;99842.66;5094626;28;20004;-76
2023/09/10 10:35:15;;;;;;;;;;;;;;;27.83;30.25;99846.75;5076983;28;20401;-76
2023/09/10 10:37:46;;;;;;;;;;;;;;;28.02;30.00;99846.84;5094757;28;20042;-77
2023/09/10 10:40:13;;;;;;;;;;;;;;;28.47;30.08;99845.63;5076202;28;19919;-78
2023/09/10 10:42:52;;;;;;;;;;;;;;;28.43;30.00;99845.41;5076446;28;19919;-75
2023/09/10 10:45:18;;;;;;;;;;;;;;;28.44;30.32;99846.19;5094556;28;19912;-78
2023/09/10 10:47:44;;;;;;;;;;;;;;;28.29;30.28;99843.66;5075893;28;19916;-78
2023/09/10 10:50:10;;;;;;;;;;;;;;;28.23;30.76;99844.75;5094071;28;19904;-76
2023/09/10 10:52:40;;;;;;;;;;;;;;;28.41;30.34;99827.75;5094441;28;20024;-76
2023/09/10 10:55:06;;;;;;;;;;;;;;;28.44;30.77;99840.78;5094061;28;20289;-76
2023/09/10 10:57:32;;;;;;;;;;;;;;;28.77;30.57;99833.59;5094440;28;19916;-75
2023/09/10 10:59:58;;;;;;;;;;;;;;;29.25;30.05;99833.53;5075757;28;20347;-77
2023/09/10 11:02:23;;;;;;;;;;;;;;;29.78;29.69;99833.31;5094147;28;19924;-76
2023/09/10 11:04:55;;;;;;;;;;;;;;;29.67;29.88;99828.00;5075941;28;19912;-76
2023/09/10 11:07:22;;;;;;;;;;;;;;;29.37;30.57;99831.19;5102390;28;19922;-76
2023/09/10 11:09:47;;;;;;;;;;;;;;;29.09;30.97;99828.31;5089742;28;19912;-76
2023/09/10 11:12:13;;;;;;;;;;;;;;;28.87;31.10;99822.59;5093982;28;20400;-75
2023/09/10 11:14:57;;;;;;;;;;;;;;;28.59;31.66;99815.34;5094155;28;19920;-78
2023/09/10 11:17:24;;;;;;;;;;;;;;;28.35;31.76;99824.28;5075955;28;19908;-76
2023/09/10 11:19:49;;;;;;;;;;;;;;;28.43;32.19;99817.41;5093736;28;19912;-77
2023/09/10 11:22:14;;;;;;;;;;;;;;;28.97;31.90;99805.34;5075436;28;20312;-77
2023/09/10 11:24:40;;;;;;;;;;;;;;;29.40;31.09;99806.91;5093534;28;19912;-78
2023/09/10 11:27:17;;;;;;;;;;;;;;;29.44;31.61;99811.78;5093421;28;20375;-77
2023/09/10 11:29:42;;;;;;;;;;;;;;;29.56;33.67;99806.69;5093515;28;20046;-79
2023/09/10 11:32:15;;;;;;;;;;;;;;;29.92;31.98;99802.28;5093464;28;20028;-76
2023/09/10 11:34:40;;;;;;;;;;;;;;;30.02;31.76;99793.97;5075303;28;19966;-76
2023/09/10 11:37:06;;;;;;;;;;;;;;;30.14;32.03;99792.66;5093297;28;19916;-77
2023/09/10 11:39:32;;;;;;;;;;;;;;;30.45;32.29;99790.16;5093187;28;19961;-77
2023/09/10 11:41:59;;;;;;;;;;;;;;;30.77;31.61;99786.53;5093125;28;20377;-77
2023/09/10 11:44:24;;;;;;;;;;;;;;;31.04;31.12;99799.28;5074826;28;19965;-77
2023/09/10 11:46:54;;;;;;;;;;;;;;;31.15;31.14;99793.31;5074749;28;19916;-78
2023/09/10 11:49:20;;;;;;;;;;;;;;;31.37;30.59;99781.66;5093126;28;19994;-77
2023/09/10 11:51:46;;;;;;;;;;;;;;;31.56;30.24;99778.72;5092994;28;19999;-77
2023/09/10 11:54:21;;;;;;;;;;;;;;;31.71;30.28;99781.09;5092908;28;19919;-78
2023/09/10 11:56:50;;;;;;;;;;;;;;;31.41;30.26;99774.47;5093107;28;19919;-76
2023/09/10 11:59:16;;;;;;;;;;;;;;;31.44;30.24;99773.84;5074638;28;20339;-75
2023/09/10 12:01:41;;;;;;;;;;;;;;;31.03;31.04;99786.78;5092625;28;20007;-78
2023/09/10 12:04:07;;;;;;;;;;;;;;;30.42;31.70;99788.03;5092823;28;19912;-77
2023/09/10 12:06:32;;;;;;;;;;;;;;;29.96;32.13;99786.16;5092616;28;19920;-77
2023/09/10 12:08:59;;;;;;;;;;;;;;;29.75;32.60;99790.34;5091681;28;21653;-77
2023/09/10 12:11:26;;;;;;;;;;;;;;;29.74;32.57;99789.53;5092439;28;19912;-78
2023/09/10 12:13:51;;;;;;;;;;;;;;;29.68;31.64;99791.50;5074397;28;19912;-77
2023/09/10 12:16:17;;;;;;;;;;;;;;;29.63;32.23;99785.34;5092575;28;19918;-77
2023/09/10 12:18:43;;;;;;;;;;;;;;;29.59;32.52;99774.25;5092593;28;19963;-77
2023/09/10 12:21:14;;;;;;;;;;;;;;;29.62;32.44;99778.28;5092638;28;19943;-76
2023/09/10 12:23:39;;;;;;;;;;;;;;;29.54;31.99;99781.69;5091945;28;19919;-77
2023/09/10 12:26:05;;;;;;;;;;;;;;;29.36;32.26;99781.41;5092405;28;19912;-77
2023/09/10 12:28:31;;;;;;;;;;;;;;;29.18;32.37;99781.44;5092455;28;19920;-78
2023/09/10 12:30:57;;;;;;;;;;;;;;;29.04;32.35;99778.63;5092465;28;20365;-77
2023/09/10 12:33:23;;;;;;;;;;;;;;;28.87;32.70;99790.00;5092338;28;19916;-78
2023/09/10 12:35:49;;;;;;;;;;;;;;;28.73;32.98;99786.34;5092322;28;19951;-77
2023/09/10 12:38:15;;;;;;;;;;;;;;;28.52;32.92;99785.81;5092603;28;19956;-77
2023/09/10 12:40:41;;;;;;;;;;;;;;;28.37;32.98;99777.84;5074283;28;19950;-77
2023/09/10 12:43:07;;;;;;;;;;;;;;;28.26;33.32;99779.88;5092338;28;19951;-77